Time;durP1;ratioP1;P1;durP2;ratioP2;P2;SDS_P1;SDS_P2;PMS_P1;PMS_P2;Temp;Humidity;BMP_temperature;BMP_pressure;BME280_temperature;BME280_humidity;BME280_pressure;Samples;Min_cycle;Max_cycle;Signal;HPM_P1;HPM_P2
2022/08/04 00:01:11;;;;;;;6.50;2.20;;;23.70;99.90;;;;;;5046201;28;20531;-81
2022/08/04 00:03:44;;;;;;;10.20;2.23;;;23.70;99.90;;;;;;5058758;28;20851;-79
2022/08/04 00:06:17;;;;;;;9.33;2.50;;;23.60;99.90;;;;;;5039235;28;20433;-81
2022/08/04 00:08:48;;;;;;;3.73;1.90;;;23.60;99.90;;;;;;5040110;28;20524;-79
2022/08/04 00:11:22;;;;;;;4.30;2.00;;;23.60;99.90;;;;;;5059191;28;20898;-81
2022/08/04 00:13:54;;;;;;;5.80;2.70;;;23.60;99.90;;;;;;5057841;28;20485;-80
2022/08/04 00:16:23;;;;;;;6.13;2.17;;;23.50;99.90;;;;;;5059221;28;20440;-80
2022/08/04 00:18:54;;;;;;;4.80;1.87;;;23.50;99.90;;;;;;5059245;28;20482;-82
2022/08/04 00:21:24;;;;;;;5.07;2.10;;;23.50;99.90;;;;;;5039598;28;20456;-82
2022/08/04 00:23:53;;;;;;;4.97;1.70;;;23.40;99.90;;;;;;5039009;28;20492;-83
2022/08/04 00:26:21;;;;;;;5.63;2.50;;;23.40;99.90;;;;;;5059445;28;20456;-80
2022/08/04 00:28:48;;;;;;;6.00;2.63;;;23.40;99.90;;;;;;5059981;28;20555;-81
2022/08/04 00:31:16;;;;;;;9.30;2.90;;;23.30;99.90;;;;;;5060432;28;20479;-82
2022/08/04 00:33:44;;;;;;;9.53;2.07;;;23.30;99.90;;;;;;5059298;28;20542;-82
2022/08/04 00:36:11;;;;;;;4.73;1.83;;;23.30;99.90;;;;;;5059751;28;20893;-81
2022/08/04 00:38:41;;;;;;;7.80;1.97;;;23.30;99.90;;;;;;5059156;28;20472;-80
2022/08/04 00:41:20;;;;;;;3.60;1.70;;;23.20;99.90;;;;;;5059989;28;20522;-83
2022/08/04 00:44:03;;;;;;;2.80;1.50;;;23.20;99.90;;;;;;5058176;28;20466;-81
2022/08/04 00:46:54;;;;;;;8.00;2.10;;;23.20;99.90;;;;;;5060887;28;20959;-79
2022/08/04 00:49:55;;;;;;;10.33;1.90;;;23.10;99.90;;;;;;5049703;28;20917;-81
2022/08/04 00:52:35;;;;;;;3.37;1.90;;;23.10;99.90;;;;;;5039963;28;21043;-82
2022/08/04 00:55:14;;;;;;;7.17;3.13;;;23.00;99.90;;;;;;5054716;28;20802;-82
2022/08/04 00:57:57;;;;;;;8.73;2.00;;;23.00;99.90;;;;;;5060598;28;20549;-81
2022/08/04 01:00:26;;;;;;;5.20;2.10;;;23.00;99.90;;;;;;5060352;28;21042;-80
2022/08/04 01:03:09;;;;;;;5.90;2.27;;;23.00;99.90;;;;;;5060857;28;21003;-83
2022/08/04 01:05:52;;;;;;;4.93;1.97;;;22.90;99.90;;;;;;5059990;28;20455;-82
2022/08/04 01:08:33;;;;;;;4.80;2.13;;;22.90;99.90;;;;;;5060060;28;21068;-80
2022/08/04 01:11:08;;;;;;;5.60;2.20;;;22.90;99.90;;;;;;5061078;28;20507;-82
2022/08/04 01:13:59;;;;;;;4.63;2.40;;;22.90;99.90;;;;;;5060140;28;20465;-83
2022/08/04 01:16:31;;;;;;;7.03;2.37;;;22.90;99.90;;;;;;5047323;28;20543;-78
2022/08/04 01:19:01;;;;;;;13.47;2.63;;;22.90;99.90;;;;;;5056068;28;20468;-79
2022/08/04 01:21:57;;;;;;;5.00;2.00;;;22.90;99.90;;;;;;5055123;28;20498;-78
2022/08/04 01:24:51;;;;;;;6.80;2.13;;;22.90;99.90;;;;;;5054318;28;21513;-81
2022/08/04 01:27:26;;;;;;;6.03;2.40;;;22.90;99.90;;;;;;5054646;28;20453;-82
2022/08/04 01:29:58;;;;;;;4.03;2.30;;;22.90;99.90;;;;;;5055478;28;20454;-80
2022/08/04 01:32:34;;;;;;;7.30;2.10;;;22.90;99.90;;;;;;5036042;28;20444;-80
2022/08/04 01:35:04;;;;;;;7.53;2.70;;;22.90;99.90;;;;;;5038245;28;20519;-79
2022/08/04 01:37:51;;;;;;;6.30;2.27;;;22.90;99.90;;;;;;5056084;28;20448;-80
2022/08/04 01:40:21;;;;;;;11.77;2.50;;;22.80;99.90;;;;;;5055486;28;20487;-79
2022/08/04 01:42:52;;;;;;;6.10;2.33;;;22.80;99.90;;;;;;5054102;28;20833;-78
2022/08/04 01:45:23;;;;;;;4.53;2.27;;;22.80;99.90;;;;;;5054692;28;20535;-78
2022/08/04 01:47:52;;;;;;;5.57;2.70;;;22.70;99.90;;;;;;5055401;28;21174;-79
2022/08/04 01:50:20;;;;;;;4.43;2.00;;;22.70;99.90;;;;;;5054540;28;20459;-79
2022/08/04 01:52:47;;;;;;;5.20;2.00;;;22.70;99.90;;;;;;5054812;28;20523;-82
2022/08/04 01:55:17;;;;;;;7.60;2.27;;;22.60;99.90;;;;;;5054378;28;20547;-79
2022/08/04 01:57:46;;;;;;;6.70;2.50;;;22.60;99.90;;;;;;5053750;28;21004;-80
2022/08/04 02:00:15;;;;;;;7.10;2.10;;;22.60;99.90;;;;;;5053662;28;20495;-81
2022/08/04 02:02:45;;;;;;;5.53;2.13;;;22.60;99.90;;;;;;5054140;28;20538;-79
2022/08/04 02:05:14;;;;;;;7.13;2.10;;;22.50;99.90;;;;;;5054299;28;20540;-78
2022/08/04 02:07:53;;;;;;;5.87;2.57;;;22.50;99.90;;;;;;5054445;28;20544;-81
2022/08/04 02:10:28;;;;;;;4.67;2.27;;;22.50;99.90;;;;;;5054001;28;20888;-79
2022/08/04 02:13:08;;;;;;;9.20;2.60;;;22.50;99.90;;;;;;5054203;28;20439;-78
2022/08/04 02:15:42;;;;;;;6.53;2.47;;;22.40;99.90;;;;;;5054180;28;20443;-80
2022/08/04 02:18:20;;;;;;;5.20;2.20;;;22.40;99.90;;;;;;5055274;28;20893;-78
2022/08/04 02:20:50;;;;;;;4.90;2.20;;;22.40;99.90;;;;;;5058063;28;20474;-79
2022/08/04 02:23:28;;;;;;;5.27;2.30;;;22.40;99.90;;;;;;5059003;28;20515;-80
2022/08/04 02:25:57;;;;;;;5.03;2.40;;;22.40;99.90;;;;;;5058633;28;20448;-80
2022/08/04 02:28:33;;;;;;;4.03;2.07;;;22.40;99.90;;;;;;5059512;28;20467;-79
2022/08/04 02:31:09;;;;;;;4.80;2.33;;;22.40;99.90;;;;;;5059028;28;20439;-77
2022/08/04 02:33:40;;;;;;;9.17;2.47;;;22.40;99.90;;;;;;5059912;28;20527;-79
2022/08/04 02:36:10;;;;;;;4.90;1.90;;;22.40;99.90;;;;;;5059196;28;20455;-80
2022/08/04 02:38:53;;;;;;;5.60;2.27;;;22.40;99.90;;;;;;5059268;28;20551;-79
2022/08/04 02:41:22;;;;;;;5.10;2.30;;;22.40;99.90;;;;;;5059833;28;20546;-79
2022/08/04 02:43:49;;;;;;;6.77;2.60;;;22.40;99.90;;;;;;5059207;28;20450;-79
2022/08/04 02:46:18;;;;;;;4.70;2.63;;;22.40;99.90;;;;;;5059946;28;20464;-79
2022/08/04 02:48:49;;;;;;;2.97;1.93;;;22.40;99.90;;;;;;5059382;28;20478;-79
2022/08/04 02:51:19;;;;;;;5.53;1.87;;;22.40;99.90;;;;;;5058609;28;20531;-79
2022/08/04 02:53:49;;;;;;;3.90;2.43;;;22.50;99.90;;;;;;5058718;28;20455;-79
2022/08/04 02:56:20;;;;;;;5.43;2.07;;;22.50;99.90;;;;;;5059372;28;20904;-80
2022/08/04 02:58:51;;;;;;;4.00;2.70;;;22.50;99.90;;;;;;5058891;28;20479;-80
2022/08/04 03:01:18;;;;;;;5.87;2.57;;;22.50;99.90;;;;;;5058814;28;20505;-80
2022/08/04 03:03:52;;;;;;;6.10;2.10;;;22.50;99.90;;;;;;5055930;28;20544;-78
2022/08/04 03:07:05;;;;;;;6.40;1.93;;;22.50;99.90;;;;;;5056217;28;20463;-82
2022/08/04 03:10:20;;;;;;;6.30;2.07;;;22.50;99.90;;;;;;5056527;28;20474;-80
2022/08/04 03:13:23;;;;;;;5.90;1.60;;;22.50;99.90;;;;;;5036279;28;20440;-84
2022/08/04 03:16:15;;;;;;;6.63;2.50;;;22.40;99.90;;;;;;5051490;28;20459;-80
2022/08/04 03:19:27;;;;;;;7.37;2.27;;;22.40;99.90;;;;;;5056597;28;20550;-80
2022/08/04 03:22:18;;;;;;;10.10;2.20;;;22.40;99.90;;;;;;5057071;28;20511;-82
2022/08/04 03:25:12;;;;;;;4.50;2.13;;;22.30;99.90;;;;;;5057236;28;20500;-80
2022/08/04 03:27:57;;;;;;;4.80;2.30;;;22.30;99.90;;;;;;5056277;28;20482;-80
2022/08/04 03:30:37;;;;;;;6.97;2.40;;;22.30;99.90;;;;;;5056183;28;20448;-80
2022/08/04 03:33:35;;;;;;;6.03;2.37;;;22.20;99.90;;;;;;5057458;28;20945;-82
2022/08/04 03:36:41;;;;;;;5.80;2.57;;;22.20;99.90;;;;;;5054829;28;20452;-80
2022/08/04 03:39:44;;;;;;;7.03;2.30;;;22.20;99.90;;;;;;5040068;28;20478;-80
2022/08/04 03:42:44;;;;;;;7.63;3.20;;;22.20;99.90;;;;;;5055180;28;20518;-81
2022/08/04 03:45:39;;;;;;;3.97;2.23;;;22.10;99.90;;;;;;5057765;28;20532;-79
2022/08/04 03:48:23;;;;;;;8.17;2.80;;;22.10;99.90;;;;;;5057338;28;20472;-80
2022/08/04 03:54:28;;;;;;;5.40;2.40;;;22.10;99.90;;;;;;5056360;28;20410;-81
2022/08/04 03:57:29;;;;;;;4.93;3.40;;;22.00;99.90;;;;;;5057854;28;20452;-79
2022/08/04 04:00:05;;;;;;;5.60;2.40;;;22.00;99.90;;;;;;5056544;28;21019;-79
2022/08/04 04:03:00;;;;;;;4.60;2.73;;;22.00;99.90;;;;;;5056837;28;20440;-80
2022/08/04 04:05:55;;;;;;;10.43;3.63;;;21.90;99.90;;;;;;5056744;28;20460;-79
2022/08/04 04:08:39;;;;;;;5.07;2.60;;;21.90;99.90;;;;;;5049690;28;20570;-80
2022/08/04 04:11:43;;;;;;;6.30;2.30;;;21.80;99.90;;;;;;5056888;28;20821;-80
2022/08/04 04:14:20;;;;;;;5.30;2.60;;;21.80;99.90;;;;;;5056580;28;20512;-79
2022/08/04 04:17:07;;;;;;;4.70;2.10;;;21.80;99.90;;;;;;5036967;28;20524;-80
2022/08/04 04:20:00;;;;;;;6.40;2.77;;;21.80;99.90;;;;;;5046039;28;20475;-80
2022/08/04 04:22:44;;;;;;;6.13;2.47;;;21.80;99.90;;;;;;5055872;28;20845;-79
2022/08/04 04:25:23;;;;;;;3.63;2.70;;;21.80;99.90;;;;;;5056293;28;20443;-80
2022/08/04 04:28:10;;;;;;;6.63;2.47;;;21.80;99.90;;;;;;5056778;28;20535;-80
2022/08/04 04:30:45;;;;;;;3.83;2.33;;;21.80;99.90;;;;;;5052147;28;20448;-80
2022/08/04 04:33:31;;;;;;;5.27;2.70;;;21.80;99.90;;;;;;5056483;28;20478;-79
2022/08/04 04:36:08;;;;;;;6.27;2.63;;;21.80;99.90;;;;;;5056396;28;21041;-79
2022/08/04 04:39:08;;;;;;;5.67;2.67;;;21.80;99.90;;;;;;5058879;28;20893;-80
2022/08/04 04:41:58;;;;;;;4.50;2.40;;;21.80;99.90;;;;;;5043993;28;20901;-79
2022/08/04 04:44:56;;;;;;;4.57;2.57;;;21.80;99.90;;;;;;5058312;28;20472;-78
2022/08/04 04:47:33;;;;;;;4.80;2.60;;;21.80;99.90;;;;;;5059714;28;20463;-79
2022/08/04 04:50:08;;;;;;;9.30;3.27;;;21.80;99.90;;;;;;5059651;28;20515;-80
2022/08/04 04:52:41;;;;;;;5.50;2.90;;;21.80;99.90;;;;;;5058345;28;20452;-78
2022/08/04 04:55:17;;;;;;;7.10;3.30;;;21.90;99.90;;;;;;5057474;28;20677;-80
2022/08/04 04:57:46;;;;;;;5.07;3.20;;;21.90;99.90;;;;;;5056834;28;20475;-78
2022/08/04 05:00:15;;;;;;;7.60;3.30;;;21.90;99.90;;;;;;5057020;28;20455;-78
2022/08/04 05:03:15;;;;;;;10.20;3.50;;;22.00;99.90;;;;;;5055401;28;20456;-78
2022/08/04 05:05:59;;;;;;;6.07;3.40;;;22.00;99.90;;;;;;5035573;28;20468;-80
2022/08/04 05:08:42;;;;;;;7.53;3.20;;;22.10;99.90;;;;;;5039946;28;20563;-79
2022/08/04 05:11:25;;;;;;;5.03;3.50;;;22.10;99.90;;;;;;5056324;28;20820;-78
2022/08/04 05:13:54;;;;;;;5.60;3.37;;;22.10;99.90;;;;;;5067511;22;20590;-81
2022/08/04 05:16:25;;;;;;;7.20;3.73;;;22.20;99.90;;;;;;5054571;28;20444;-80
2022/08/04 05:19:03;;;;;;;5.37;3.67;;;22.20;99.90;;;;;;5053147;28;20464;-78
2022/08/04 05:21:38;;;;;;;8.37;3.57;;;22.30;99.90;;;;;;5053589;28;20562;-78
2022/08/04 05:24:09;;;;;;;4.73;3.60;;;22.30;99.90;;;;;;5052508;28;20548;-79
2022/08/04 05:26:46;;;;;;;5.93;3.20;;;22.40;99.90;;;;;;5056196;28;20472;-78
2022/08/04 05:29:23;;;;;;;6.27;3.30;;;22.40;99.90;;;;;;5057087;28;20909;-78
2022/08/04 05:31:53;;;;;;;7.10;3.43;;;22.50;99.90;;;;;;5056856;28;20472;-79
2022/08/04 05:34:24;;;;;;;6.50;3.20;;;22.50;99.90;;;;;;5055608;28;20554;-79
2022/08/04 05:36:55;;;;;;;6.00;3.53;;;22.60;99.90;;;;;;5055513;28;20502;-77
2022/08/04 05:39:24;;;;;;;8.97;3.20;;;22.60;99.90;;;;;;5056300;28;20480;-78
2022/08/04 05:41:52;;;;;;;4.57;3.47;;;22.70;99.90;;;;;;5055388;28;20512;-79
2022/08/04 05:44:21;;;;;;;4.40;2.73;;;22.70;99.90;;;;;;5055345;28;20556;-80
2022/08/04 05:46:52;;;;;;;6.23;3.10;;;22.70;99.90;;;;;;5055795;28;20472;-80
2022/08/04 05:49:21;;;;;;;7.50;2.53;;;22.80;99.90;;;;;;5054939;28;20451;-81
2022/08/04 05:51:49;;;;;;;5.50;3.20;;;22.90;99.90;;;;;;5053442;28;20452;-78
2022/08/04 05:54:19;;;;;;;10.30;3.10;;;22.90;99.90;;;;;;5051095;28;20511;-78
2022/08/04 05:56:47;;;;;;;4.50;2.97;;;23.00;99.90;;;;;;5051982;28;20444;-79
2022/08/04 05:59:15;;;;;;;3.70;2.77;;;23.10;99.90;;;;;;5049179;28;20460;-77
2022/08/04 06:01:44;;;;;;;4.70;3.13;;;23.10;99.90;;;;;;5047044;28;20479;-78
2022/08/04 06:04:13;;;;;;;10.37;2.70;;;23.20;99.90;;;;;;5045476;28;20556;-78
2022/08/04 06:06:42;;;;;;;4.40;2.70;;;23.30;99.90;;;;;;5044982;28;20524;-79
2022/08/04 06:09:10;;;;;;;7.60;2.70;;;23.40;99.90;;;;;;5042786;28;20539;-79
2022/08/04 06:11:39;;;;;;;4.80;3.17;;;23.40;99.90;;;;;;5047106;28;20482;-79
2022/08/04 06:14:09;;;;;;;6.00;2.87;;;23.50;99.90;;;;;;5049253;28;21025;-78
2022/08/04 06:16:39;;;;;;;4.53;2.80;;;23.60;99.90;;;;;;5049116;28;20489;-78
2022/08/04 06:19:08;;;;;;;7.70;3.40;;;23.60;99.90;;;;;;5049625;28;20464;-78
2022/08/04 06:21:41;;;;;;;5.90;3.00;;;23.70;99.90;;;;;;5052184;28;20491;-78
2022/08/04 06:24:14;;;;;;;5.47;3.23;;;23.80;99.90;;;;;;5045747;28;20846;-78
2022/08/04 06:26:43;;;;;;;7.83;3.50;;;23.80;99.90;;;;;;5047149;28;20539;-79
2022/08/04 06:29:18;;;;;;;6.03;2.57;;;23.90;99.90;;;;;;5040250;28;20488;-81
2022/08/04 06:31:56;;;;;;;4.40;2.70;;;24.00;99.90;;;;;;5042118;28;20869;-81
2022/08/04 06:34:25;;;;;;;4.83;2.60;;;24.10;99.90;;;;;;5043256;28;20976;-80
2022/08/04 06:36:53;;;;;;;4.00;3.00;;;24.10;99.90;;;;;;5051796;28;20452;-79
2022/08/04 06:39:23;;;;;;;3.37;2.70;;;24.30;99.90;;;;;;5047985;28;20455;-80
2022/08/04 06:41:52;;;;;;;7.10;2.57;;;24.30;99.90;;;;;;5044922;28;20480;-81
2022/08/04 06:44:20;;;;;;;4.17;2.43;;;24.50;99.90;;;;;;5044741;28;20555;-80
2022/08/04 06:46:48;;;;;;;4.07;2.00;;;24.60;99.90;;;;;;5037790;28;21035;-81
2022/08/04 06:49:17;;;;;;;6.27;3.23;;;24.70;99.90;;;;;;5052471;28;20889;-80
2022/08/04 06:51:47;;;;;;;5.27;2.90;;;24.80;99.90;;;;;;5051935;28;20451;-80
2022/08/04 06:54:14;;;;;;;5.20;2.30;;;24.90;99.90;;;;;;5047298;28;20476;-80
2022/08/04 06:56:43;;;;;;;4.57;2.37;;;24.90;99.90;;;;;;5050990;28;20463;-80
2022/08/04 06:59:11;;;;;;;3.80;2.80;;;25.00;99.90;;;;;;5056192;28;20525;-80
2022/08/04 07:01:40;;;;;;;7.63;2.50;;;25.10;99.90;;;;;;5047138;28;20563;-80
2022/08/04 07:04:07;;;;;;;3.07;1.97;;;25.20;99.90;;;;;;5039859;28;20565;-79
2022/08/04 07:06:34;;;;;;;5.20;2.43;;;25.30;99.90;;;;;;5047086;28;21023;-79
2022/08/04 07:09:01;;;;;;;5.53;2.37;;;25.30;99.90;;;;;;5051543;28;20488;-80
2022/08/04 07:11:28;;;;;;;4.10;2.10;;;25.50;99.90;;;;;;5059763;28;20451;-81
2022/08/04 07:13:59;;;;;;;4.40;2.27;;;25.50;99.90;;;;;;5055401;28;20506;-80
2022/08/04 07:16:26;;;;;;;8.23;2.53;;;25.60;99.90;;;;;;5057015;28;20520;-80
2022/08/04 07:18:53;;;;;;;4.00;2.67;;;25.80;99.90;;;;;;5051535;28;20512;-81
2022/08/04 07:21:25;;;;;;;6.60;2.60;;;25.90;99.90;;;;;;5045086;28;20487;-78
2022/08/04 07:23:52;;;;;;;5.03;2.20;;;25.90;99.90;;;;;;5044987;28;20482;-82
2022/08/04 07:26:19;;;;;;;6.13;2.50;;;26.00;99.90;;;;;;5044871;28;20908;-80
2022/08/04 07:28:47;;;;;;;5.03;2.83;;;26.10;99.90;;;;;;5047350;28;20881;-80
2022/08/04 07:31:19;;;;;;;3.63;2.50;;;26.20;99.90;;;;;;5043774;28;20453;-80
2022/08/04 07:33:47;;;;;;;3.37;2.00;;;26.30;99.90;;;;;;5045942;28;20464;-81
2022/08/04 07:36:14;;;;;;;3.73;1.80;;;26.40;99.90;;;;;;5043366;28;20593;-80
2022/08/04 07:38:43;;;;;;;3.50;2.20;;;26.50;99.90;;;;;;5045096;28;20452;-81
2022/08/04 07:41:13;;;;;;;3.37;2.13;;;26.60;99.90;;;;;;5043944;28;20499;-81
2022/08/04 07:43:40;;;;;;;3.87;2.13;;;26.70;99.90;;;;;;5048110;28;20471;-80
2022/08/04 07:46:07;;;;;;;4.03;2.30;;;26.80;99.90;;;;;;5045687;28;20536;-81
2022/08/04 07:48:35;;;;;;;3.50;1.90;;;26.90;99.90;;;;;;5050187;28;20547;-83
2022/08/04 07:51:03;;;;;;;4.07;1.93;;;27.00;99.90;;;;;;5053871;28;20492;-82
2022/08/04 07:53:31;;;;;;;4.47;2.20;;;27.10;99.90;;;;;;5054024;28;20487;-82
2022/08/04 07:55:59;;;;;;;4.33;2.30;;;27.20;99.90;;;;;;5054677;28;20538;-82
2022/08/04 07:58:27;;;;;;;4.30;1.90;;;27.30;99.90;;;;;;5042302;28;20448;-82
2022/08/04 08:00:54;;;;;;;3.83;2.23;;;27.40;99.90;;;;;;5054783;28;20556;-81
2022/08/04 08:03:22;;;;;;;4.80;2.37;;;27.50;99.90;;;;;;5053847;28;21022;-83
2022/08/04 08:05:50;;;;;;;4.10;1.80;;;27.60;99.90;;;;;;5054598;28;20480;-81
2022/08/04 08:08:21;;;;;;;6.13;2.57;;;27.60;99.90;;;;;;5054831;28;20456;-82
2022/08/04 08:10:48;;;;;;;2.80;1.90;;;27.70;99.90;;;;;;5054429;28;20906;-81
2022/08/04 08:13:16;;;;;;;5.80;2.33;;;27.80;99.90;;;;;;5046234;28;20540;-82
2022/08/04 08:15:46;;;;;;;4.20;2.20;;;27.80;99.90;;;;;;5044477;28;20542;-81
2022/08/04 08:18:19;;;;;;;5.10;2.53;;;27.80;99.90;;;;;;5043812;28;20547;-82
2022/08/04 08:20:46;;;;;;;5.23;2.70;;;28.00;99.90;;;;;;5047274;28;20447;-85
2022/08/04 08:23:14;;;;;;;3.80;2.47;;;28.10;99.90;;;;;;5048549;28;20522;-83
2022/08/04 08:25:41;;;;;;;3.90;2.63;;;28.20;99.90;;;;;;5046646;28;20500;-83
2022/08/04 08:28:08;;;;;;;4.17;2.40;;;28.30;99.90;;;;;;5054367;28;20483;-84
2022/08/04 08:30:36;;;;;;;4.90;2.30;;;28.40;99.90;;;;;;5058285;28;20952;-83
2022/08/04 08:33:05;;;;;;;3.93;2.00;;;28.60;99.90;;;;;;5055814;28;20519;-83
2022/08/04 08:35:38;;;;;;;4.10;2.00;;;28.80;99.90;;;;;;5053954;28;20503;-83
2022/08/04 08:38:06;;;;;;;3.87;1.97;;;28.90;99.90;;;;;;5057546;28;20436;-83
2022/08/04 08:40:44;;;;;;;4.97;2.37;;;29.00;99.90;;;;;;5059042;28;20474;-84
2022/08/04 08:43:44;;;;;;;3.70;2.20;;;29.10;99.90;;;;;;5056893;28;20534;-82
2022/08/04 08:46:41;;;;;;;3.10;2.30;;;29.30;99.90;;;;;;5056163;28;20551;-82
2022/08/04 08:49:27;;;;;;;2.90;1.80;;;29.60;99.90;;;;;;5049191;28;20467;-82
2022/08/04 08:52:19;;;;;;;2.93;1.83;;;29.80;99.90;;;;;;5057457;28;20444;-82
2022/08/04 08:55:04;;;;;;;4.53;2.40;;;30.00;99.90;;;;;;5062694;28;20478;-84
2022/08/04 08:57:54;;;;;;;4.40;1.77;;;30.20;99.90;;;;;;5060422;28;20464;-83
2022/08/04 09:00:33;;;;;;;3.60;2.03;;;30.50;99.90;;;;;;5060009;28;20551;-83
2022/08/04 09:03:26;;;;;;;3.20;1.80;;;30.60;99.90;;;;;;5058985;28;20563;-81
2022/08/04 09:06:23;;;;;;;4.50;2.00;;;30.80;99.90;;;;;;5058560;28;20487;-82
2022/08/04 09:09:32;;;;;;;6.53;2.10;;;30.90;99.90;;;;;;4976857;28;20465;-83
2022/08/04 09:12:06;;;;;;;8.10;2.33;;;31.00;99.90;;;;;;5052357;28;20516;-82
2022/08/04 09:14:42;;;;;;;3.67;1.80;;;31.40;99.90;;;;;;5061881;28;20555;-83
2022/08/04 09:17:19;;;;;;;3.00;1.43;;;31.60;99.90;;;;;;5070646;28;20525;-82
2022/08/04 09:20:08;;;;;;;4.03;1.97;;;31.90;99.90;;;;;;5067468;28;20464;-82
2022/08/04 09:22:43;;;;;;;3.23;1.87;;;32.00;99.90;;;;;;5069664;28;20484;-82
2022/08/04 09:25:16;;;;;;;5.87;2.30;;;32.20;99.90;;;;;;5065045;28;20475;-81
2022/08/04 09:27:50;;;;;;;3.60;2.23;;;32.00;99.90;;;;;;5059154;28;20539;-82
2022/08/04 09:30:20;;;;;;;2.90;1.70;;;32.20;99.90;;;;;;5057643;28;20452;-82
2022/08/04 09:32:56;;;;;;;2.40;1.57;;;32.30;99.90;;;;;;5057889;28;20524;-82
2022/08/04 09:35:33;;;;;;;2.80;1.57;;;32.40;99.90;;;;;;5055933;28;20495;-82
2022/08/04 09:38:10;;;;;;;5.20;1.70;;;32.50;99.90;;;;;;5059315;28;20975;-83
2022/08/04 09:40:45;;;;;;;3.23;1.67;;;32.90;99.90;;;;;;5059512;28;20444;-83
2022/08/04 09:43:23;;;;;;;3.37;1.87;;;33.00;99.90;;;;;;5058238;28;20863;-82
2022/08/04 09:46:02;;;;;;;6.80;1.67;;;33.30;99.90;;;;;;5057789;28;20970;-82
2022/08/04 09:48:37;;;;;;;4.00;1.53;;;33.50;99.90;;;;;;5044035;28;20853;-82
2022/08/04 09:51:14;;;;;;;3.07;1.77;;;33.80;99.90;;;;;;5056189;28;20486;-81
2022/08/04 09:53:51;;;;;;;2.63;1.63;;;34.00;99.90;;;;;;5055191;28;20511;-81
2022/08/04 09:56:26;;;;;;;3.90;1.77;;;34.00;99.90;;;;;;5058846;28;20530;-81
2022/08/04 09:59:01;;;;;;;7.77;2.17;;;34.40;99.90;;;;;;5046378;28;20513;-81
2022/08/04 10:01:31;;;;;;;3.37;1.70;;;34.20;99.90;;;;;;5056651;28;20507;-81
2022/08/04 10:04:01;;;;;;;2.50;1.40;;;34.40;99.90;;;;;;5057073;28;20515;-81
2022/08/04 10:06:54;;;;;;;4.13;1.70;;;34.70;99.90;;;;;;5058539;28;20975;-83
2022/08/04 10:09:52;;;;;;;9.10;2.03;;;35.00;99.90;;;;;;5055734;28;20448;-81
2022/08/04 10:12:31;;;;;;;3.70;1.50;;;34.40;99.90;;;;;;5054661;28;20444;-81
2022/08/04 10:15:08;;;;;;;6.50;1.90;;;34.40;99.90;;;;;;5052512;28;20522;-80
2022/08/04 10:17:51;;;;;;;5.50;1.70;;;34.30;99.90;;;;;;5054949;28;20475;-82
2022/08/04 10:20:30;;;;;;;3.80;1.50;;;34.90;99.90;;;;;;5052183;28;20472;-81
2022/08/04 10:23:05;;;;;;;4.60;1.80;;;35.10;99.90;;;;;;5053433;28;20507;-81
2022/08/04 10:25:45;;;;;;;3.43;1.40;;;35.10;99.90;;;;;;5048656;28;20479;-81
2022/08/04 10:28:19;;;;;;;3.53;1.80;;;34.90;99.90;;;;;;5052731;28;20525;-81
2022/08/04 10:30:52;;;;;;;3.70;1.77;;;34.90;99.90;;;;;;5052902;28;20531;-82
2022/08/04 10:33:25;;;;;;;3.80;1.73;;;35.00;99.90;;;;;;5053135;28;20448;-81
2022/08/04 10:35:59;;;;;;;3.60;1.80;;;35.20;99.90;;;;;;5055625;28;20452;-81
2022/08/04 10:38:30;;;;;;;5.27;1.67;;;35.10;99.90;;;;;;5057383;28;20515;-81
2022/08/04 10:41:04;;;;;;;3.70;2.20;;;34.90;99.90;;;;;;5061893;28;20448;-81
2022/08/04 10:43:43;;;;;;;2.67;1.60;;;34.90;99.90;;;;;;5062406;28;20525;-81
2022/08/04 10:46:16;;;;;;;2.30;1.43;;;35.20;99.90;;;;;;5061284;28;20495;-82
2022/08/04 10:48:53;;;;;;;3.10;1.60;;;35.30;99.90;;;;;;5062346;28;20448;-81
2022/08/04 10:51:26;;;;;;;3.23;1.53;;;35.20;99.90;;;;;;5054621;28;20566;-81
2022/08/04 10:54:02;;;;;;;6.37;2.43;;;35.00;99.90;;;;;;5049983;28;20474;-81
2022/08/04 10:56:38;;;;;;;4.07;1.90;;;35.10;99.90;;;;;;5053370;28;20550;-81
2022/08/04 10:59:11;;;;;;;6.00;2.10;;;35.30;99.90;;;;;;5053976;28;20486;-80
2022/08/04 11:01:41;;;;;;;5.43;1.80;;;35.20;99.90;;;;;;5053999;28;20476;-81
2022/08/04 11:04:17;;;;;;;7.00;2.27;;;35.00;99.90;;;;;;5055404;28;21043;-82
2022/08/04 11:06:45;;;;;;;3.50;2.23;;;34.50;99.90;;;;;;5057709;28;20444;-81
2022/08/04 11:09:14;;;;;;;6.37;2.57;;;34.30;99.90;;;;;;5054165;28;21061;-82
2022/08/04 11:11:47;;;;;;;7.13;2.57;;;33.60;99.90;;;;;;5057138;28;20892;-82
2022/08/04 11:14:16;;;;;;;6.40;2.30;;;33.50;99.90;;;;;;5053879;28;20570;-81
2022/08/04 11:16:48;;;;;;;4.40;2.40;;;33.30;99.90;;;;;;5058899;28;21021;-81
2022/08/04 11:19:30;;;;;;;6.00;2.47;;;32.90;99.90;;;;;;5058619;28;20467;-81
2022/08/04 11:22:00;;;;;;;4.87;2.63;;;32.70;99.90;;;;;;5057904;28;20466;-82
2022/08/04 11:24:36;;;;;;;5.60;2.50;;;32.80;99.90;;;;;;5057559;28;20540;-82
2022/08/04 11:27:08;;;;;;;8.63;3.37;;;32.80;99.90;;;;;;5058898;28;20452;-82
2022/08/04 11:29:45;;;;;;;7.10;2.33;;;32.90;99.90;;;;;;5058572;28;20446;-82
2022/08/04 11:32:17;;;;;;;3.77;2.47;;;33.60;99.90;;;;;;5058317;28;20539;-82
2022/08/04 11:34:49;;;;;;;6.40;2.27;;;33.80;99.90;;;;;;5057117;28;20902;-82
2022/08/04 11:39:56;;;;;;;3.90;2.27;;;33.80;99.90;;;;;;5048708;28;20864;-80
2022/08/04 11:42:27;;;;;;;4.80;2.40;;;33.70;99.90;;;;;;5055177;28;20455;-80
2022/08/04 11:45:00;;;;;;;5.20;2.60;;;33.60;99.90;;;;;;5051544;28;20447;-80
2022/08/04 11:47:30;;;;;;;9.13;2.53;;;33.10;99.90;;;;;;5055362;28;20456;-79
2022/08/04 11:50:04;;;;;;;6.10;2.30;;;33.10;99.90;;;;;;5054525;28;20467;-76
2022/08/04 11:52:33;;;;;;;4.07;1.90;;;32.80;99.90;;;;;;5052700;28;20506;-78
2022/08/04 11:55:05;;;;;;;6.07;2.40;;;32.60;99.90;;;;;;5050678;28;20444;-79
2022/08/04 11:57:33;;;;;;;5.40;2.10;;;32.60;99.90;;;;;;5055378;28;20450;-78
2022/08/04 12:00:03;;;;;;;5.53;2.40;;;32.80;99.90;;;;;;5055038;28;20444;-78
2022/08/04 12:02:53;;;;;;;6.20;2.53;;;33.00;99.90;;;;;;5055649;28;20782;-80
2022/08/04 12:05:27;;;;;;;7.13;2.40;;;33.30;99.90;;;;;;5050673;28;20491;-76
2022/08/04 12:08:06;;;;;;;4.70;2.40;;;32.80;99.90;;;;;;5056372;28;20555;-77
2022/08/04 12:10:42;;;;;;;4.80;1.77;;;32.60;99.90;;;;;;5055786;28;20467;-80
2022/08/04 12:13:20;;;;;;;5.40;2.20;;;32.50;99.90;;;;;;5054923;28;20456;-80
2022/08/04 12:15:57;;;;;;;5.20;2.20;;;32.00;99.90;;;;;;5055888;28;20466;-79
2022/08/04 12:18:30;;;;;;;4.70;2.73;;;31.80;99.90;;;;;;5055711;28;20554;-80
2022/08/04 12:21:01;;;;;;;8.47;1.87;;;31.80;99.90;;;;;;5051815;28;20459;-79
2022/08/04 12:23:33;;;;;;;4.63;1.60;;;31.60;99.90;;;;;;5048706;28;20485;-79
2022/08/04 12:26:05;;;;;;;6.50;2.20;;;31.40;99.90;;;;;;5050111;28;20482;-79
2022/08/04 12:28:37;;;;;;;2.93;1.80;;;31.30;99.90;;;;;;5053384;28;20558;-78
2022/08/04 12:31:12;;;;;;;3.43;2.13;;;31.30;99.90;;;;;;5055669;28;20876;-79
2022/08/04 12:33:44;;;;;;;4.60;2.20;;;31.20;99.90;;;;;;5054056;28;20448;-79
2022/08/04 12:36:20;;;;;;;4.30;2.10;;;31.30;99.90;;;;;;5055198;28;20502;-78
2022/08/04 12:38:52;;;;;;;4.27;2.13;;;31.40;99.90;;;;;;5053823;28;20486;-79
2022/08/04 12:41:24;;;;;;;5.27;2.27;;;31.30;99.90;;;;;;5053499;28;20455;-81
2022/08/04 12:43:54;;;;;;;5.40;2.10;;;31.30;99.90;;;;;;5053571;28;20480;-80
2022/08/04 12:46:23;;;;;;;6.50;2.63;;;31.30;99.90;;;;;;5055552;28;20455;-81
2022/08/04 12:48:51;;;;;;;3.90;2.20;;;31.20;99.90;;;;;;5054800;28;20563;-79
2022/08/04 12:51:21;;;;;;;4.87;2.60;;;31.30;99.90;;;;;;5050900;28;20510;-81
2022/08/04 12:53:51;;;;;;;3.83;2.30;;;31.30;99.90;;;;;;5054242;28;20537;-84
2022/08/04 12:56:28;;;;;;;7.67;2.30;;;31.40;99.90;;;;;;5054420;28;20551;-81
2022/08/04 12:59:03;;;;;;;5.60;2.50;;;31.60;99.90;;;;;;5054795;28;20498;-81
2022/08/04 13:01:32;;;;;;;4.40;1.80;;;31.50;99.90;;;;;;5053618;28;20484;-82
2022/08/04 13:04:02;;;;;;;7.20;2.60;;;31.50;99.90;;;;;;5052603;28;20579;-81
2022/08/04 13:06:34;;;;;;;10.23;2.20;;;31.50;99.90;;;;;;5058553;28;20452;-83
2022/08/04 13:09:08;;;;;;;6.00;2.67;;;31.30;99.90;;;;;;5060987;28;21027;-83
2022/08/04 13:11:38;;;;;;;7.10;2.70;;;31.30;99.90;;;;;;5056696;28;20890;-82
2022/08/04 13:14:07;;;;;;;4.60;2.40;;;31.30;99.90;;;;;;5051021;28;20452;-82
2022/08/04 13:16:34;;;;;;;5.90;3.00;;;31.40;99.90;;;;;;5051209;28;20471;-82
2022/08/04 13:19:02;;;;;;;7.90;2.60;;;31.50;99.90;;;;;;5049166;28;20945;-82
2022/08/04 13:21:31;;;;;;;5.57;2.60;;;32.10;99.90;;;;;;5053499;28;20796;-82
2022/08/04 13:24:03;;;;;;;5.97;2.67;;;32.60;99.90;;;;;;5048954;28;20947;-83
2022/08/04 13:26:31;;;;;;;8.03;2.27;;;33.40;99.90;;;;;;5053558;28;21300;-81
2022/08/04 13:29:02;;;;;;;7.00;2.43;;;33.80;99.90;;;;;;5054781;28;20544;-81
2022/08/04 13:31:30;;;;;;;8.00;2.30;;;34.40;99.90;;;;;;5054059;28;20523;-82
2022/08/04 13:34:06;;;;;;;8.30;2.40;;;34.60;99.90;;;;;;5047952;28;20453;-81